createdAt,value
2019-06-10T00:00:38.324Z,1014.72
2019-06-10T00:01:40.751Z,1014.69
2019-06-10T00:02:38.302Z,1014.66
2019-06-10T00:03:38.294Z,1014.68
2019-06-10T00:04:38.281Z,1014.69
2019-06-10T00:05:38.274Z,1014.67
2019-06-10T00:06:38.258Z,1014.69
2019-06-10T00:07:38.246Z,1014.70
2019-06-10T00:08:38.233Z,1014.63
2019-06-10T00:09:40.589Z,1014.65
2019-06-10T00:10:38.212Z,1014.63
2019-06-10T00:11:40.508Z,1014.61
2019-06-10T00:12:38.190Z,1014.60
2019-06-10T00:13:38.178Z,1014.57
2019-06-10T00:14:38.167Z,1014.52
2019-06-10T00:15:40.757Z,1014.50
2019-06-10T00:16:38.144Z,1014.53
2019-06-10T00:17:52.491Z,1014.49
2019-06-10T00:18:43.037Z,1014.53
2019-06-10T00:19:40.955Z,1014.49
2019-06-10T00:20:40.652Z,1014.54
2019-06-10T00:21:38.116Z,1014.57
2019-06-10T00:22:38.078Z,1014.59
2019-06-10T00:23:38.099Z,1014.64
2019-06-10T00:24:40.768Z,1014.62
2019-06-10T00:25:38.044Z,1014.67
2019-06-10T00:26:38.033Z,1014.68
2019-06-10T00:27:38.022Z,1014.64
2019-06-10T00:28:38.014Z,1014.67
2019-06-10T00:29:38.030Z,1014.64
2019-06-10T00:30:37.988Z,1014.62
2019-06-10T00:31:38.120Z,1014.64
2019-06-10T00:32:37.967Z,1014.67
2019-06-10T00:33:37.956Z,1014.60
2019-06-10T00:34:37.944Z,1014.62
2019-06-10T00:35:37.953Z,1014.60
2019-06-10T00:36:37.921Z,1014.62
2019-06-10T00:37:37.911Z,1014.61
2019-06-10T00:38:37.900Z,1014.59
2019-06-10T00:39:37.888Z,1014.62
2019-06-10T00:40:37.878Z,1014.60
2019-06-10T00:41:37.986Z,1014.56
2019-06-10T00:42:37.856Z,1014.58
2019-06-10T00:43:37.846Z,1014.54
2019-06-10T00:44:37.834Z,1014.52
2019-06-10T00:45:37.823Z,1014.51
2019-06-10T00:46:37.813Z,1014.50
2019-06-10T00:47:37.831Z,1014.51
2019-06-10T00:48:37.792Z,1014.50
2019-06-10T00:49:37.777Z,1014.51
2019-06-10T00:50:37.766Z,1014.47
2019-06-10T00:51:37.809Z,1014.45
2019-06-10T00:52:37.743Z,1014.42
2019-06-10T00:53:37.741Z,1014.43
2019-06-10T00:54:37.722Z,1014.45
2019-06-10T00:55:37.710Z,1014.43
2019-06-10T00:56:37.699Z,1014.40
2019-06-10T00:57:37.688Z,1014.38
2019-06-10T00:58:37.677Z,1014.38
2019-06-10T00:59:37.681Z,1014.35
2019-06-10T01:00:37.654Z,1014.33
2019-06-10T01:01:37.643Z,1014.33
2019-06-10T01:02:37.632Z,1014.34
2019-06-10T01:03:37.621Z,1014.33
2019-06-10T01:04:37.610Z,1014.32
2019-06-10T01:05:37.607Z,1014.29
2019-06-10T01:06:37.587Z,1014.23
2019-06-10T01:07:37.575Z,1014.23
2019-06-10T01:08:37.573Z,1014.24
2019-06-10T01:09:37.557Z,1014.25
2019-06-10T01:10:37.546Z,1014.28
2019-06-10T01:11:37.618Z,1014.23
2019-06-10T01:12:37.520Z,1014.19
2019-06-10T01:13:37.512Z,1014.10
2019-06-10T01:14:37.500Z,1014.05
2019-06-10T01:15:37.487Z,1013.97
2019-06-10T01:16:37.475Z,1013.95
2019-06-10T01:17:37.499Z,1013.88
2019-06-10T01:18:38.585Z,1013.89
2019-06-10T01:19:37.446Z,1013.88
2019-06-10T01:20:37.432Z,1013.86
2019-06-10T01:21:37.465Z,1013.87
2019-06-10T01:22:37.409Z,1013.83
2019-06-10T01:23:37.429Z,1013.82
2019-06-10T01:24:37.387Z,1013.77
2019-06-10T01:25:37.375Z,1013.72
2019-06-10T01:26:37.364Z,1013.71
2019-06-10T01:27:37.354Z,1013.73
2019-06-10T01:28:37.346Z,1013.70
2019-06-10T01:29:37.339Z,1013.73
2019-06-10T01:30:37.320Z,1013.70
2019-06-10T01:31:37.375Z,1013.70
2019-06-10T01:32:37.307Z,1013.70
2019-06-10T01:33:37.286Z,1013.70
2019-06-10T01:34:37.275Z,1013.74
2019-06-10T01:35:37.271Z,1013.77
2019-06-10T01:36:37.253Z,1013.78
2019-06-10T01:37:37.243Z,1013.75
2019-06-10T01:38:37.230Z,1013.72
2019-06-10T01:39:37.220Z,1013.64
2019-06-10T01:40:37.209Z,1013.66
2019-06-10T01:41:37.274Z,1013.58
2019-06-10T01:42:37.186Z,1013.55
2019-06-10T01:43:37.175Z,1013.51
2019-06-10T01:44:37.171Z,1013.48
2019-06-10T01:45:37.152Z,1013.44
2019-06-10T01:46:37.149Z,1013.41
2019-06-10T01:47:37.159Z,1013.37
2019-06-10T01:48:44.294Z,1013.30
2019-06-10T01:49:38.107Z,1013.33
2019-06-10T01:50:37.097Z,1013.32
2019-06-10T01:51:37.133Z,1013.31
2019-06-10T01:52:37.077Z,1013.31
2019-06-10T01:53:37.071Z,1013.32
2019-06-10T01:54:37.052Z,1013.34
2019-06-10T01:55:37.042Z,1013.35
2019-06-10T01:56:37.029Z,1013.37
2019-06-10T01:57:37.019Z,1013.39
2019-06-10T01:58:37.008Z,1013.40
2019-06-10T01:59:37.028Z,1013.43
2019-06-10T02:00:36.987Z,1013.39
2019-06-10T02:01:36.974Z,1013.41
2019-06-10T02:02:37.118Z,1013.40
2019-06-10T02:03:36.953Z,1013.39
2019-06-10T02:04:36.943Z,1013.40
2019-06-10T02:05:36.940Z,1013.35
2019-06-10T02:06:36.920Z,1013.37
2019-06-10T02:07:36.908Z,1013.32
2019-06-10T02:08:36.896Z,1013.30
2019-06-10T02:09:36.885Z,1013.27
2019-06-10T02:10:36.875Z,1013.21
2019-06-10T02:11:36.898Z,1013.21
2019-06-10T02:12:36.853Z,1013.15
2019-06-10T02:13:36.841Z,1013.14
2019-06-10T02:14:36.829Z,1013.04
2019-06-10T02:15:36.818Z,1012.97
2019-06-10T02:16:36.806Z,1012.87
2019-06-10T02:17:36.821Z,1012.86
2019-06-10T02:18:36.785Z,1012.88
2019-06-10T02:19:36.772Z,1012.86
2019-06-10T02:20:36.770Z,1012.80
2019-06-10T02:21:36.751Z,1012.83
2019-06-10T02:22:36.740Z,1012.78
2019-06-10T02:23:36.739Z,1012.78
2019-06-10T02:24:36.718Z,1012.71
2019-06-10T02:25:36.708Z,1012.65
2019-06-10T02:26:36.695Z,1012.62
2019-06-10T02:27:36.684Z,1012.56
2019-06-10T02:28:36.673Z,1012.53
2019-06-10T02:29:36.699Z,1012.47
2019-06-10T02:30:46.191Z,1012.48
2019-06-10T02:31:38.032Z,1012.48
2019-06-10T02:32:37.879Z,1012.50
2019-06-10T02:33:37.011Z,1012.47
2019-06-10T02:34:42.805Z,1012.49
2019-06-10T02:35:44.363Z,1012.47
2019-06-10T02:36:37.586Z,1012.47
2019-06-10T02:37:38.090Z,1012.38
2019-06-10T02:38:39.585Z,1012.37
2019-06-10T02:39:39.009Z,1012.30
2019-06-10T02:40:36.828Z,1012.33
2019-06-10T02:41:36.668Z,1012.35
2019-06-10T02:42:36.528Z,1012.36
2019-06-10T02:43:37.911Z,1012.30
2019-06-10T02:44:37.846Z,1012.17
2019-06-10T02:45:37.710Z,1012.10
2019-06-10T02:46:36.721Z,1012.16
2019-06-10T02:47:37.853Z,1012.18
2019-06-10T02:48:36.466Z,1012.21
2019-06-10T02:49:52.676Z,1012.23
2019-06-10T02:50:37.440Z,1012.26
2019-06-10T02:51:36.418Z,1012.24
2019-06-10T02:52:38.552Z,1012.26
2019-06-10T02:53:37.193Z,1012.22
2019-06-10T02:54:36.387Z,1012.25
2019-06-10T02:55:36.377Z,1012.24
2019-06-10T02:56:37.083Z,1012.25
2019-06-10T02:57:39.959Z,1012.24
2019-06-10T02:58:39.094Z,1012.27
2019-06-10T02:59:36.718Z,1012.25
2019-06-10T03:00:43.450Z,1012.24
2019-06-10T03:01:38.317Z,1012.19
2019-06-10T03:02:36.728Z,1012.17
2019-06-10T03:03:43.679Z,1012.16
2019-06-10T03:04:37.894Z,1012.13
2019-06-10T03:05:40.971Z,1012.11
2019-06-10T03:06:40.228Z,1012.07
2019-06-10T03:07:36.243Z,1012.12
2019-06-10T03:08:36.933Z,1012.10
2019-06-10T03:09:36.268Z,1012.12
2019-06-10T03:10:37.412Z,1012.09
2019-06-10T03:11:37.512Z,1012.11
2019-06-10T03:12:36.185Z,1012.11
2019-06-10T03:13:36.172Z,1012.12
2019-06-10T03:14:36.161Z,1012.10
2019-06-10T03:15:36.150Z,1012.13
2019-06-10T03:16:36.171Z,1012.13
2019-06-10T03:17:36.127Z,1012.14
2019-06-10T03:18:36.119Z,1012.19
2019-06-10T03:19:47.174Z,1012.18
2019-06-10T03:20:37.093Z,1012.14
2019-06-10T03:21:36.086Z,1012.16
2019-06-10T03:22:36.079Z,1012.23
2019-06-10T03:23:36.060Z,1012.25
2019-06-10T03:24:36.051Z,1012.26
2019-06-10T03:25:36.037Z,1012.31
2019-06-10T03:26:36.027Z,1012.26
2019-06-10T03:27:36.016Z,1012.29
2019-06-10T03:28:36.028Z,1012.28
2019-06-10T03:29:35.999Z,1012.27
2019-06-10T03:30:47.876Z,1012.30
2019-06-10T03:31:41.794Z,1012.29
2019-06-10T03:32:45.350Z,1012.33
2019-06-10T03:33:42.028Z,1012.29
2019-06-10T03:34:41.964Z,1012.28
2019-06-10T03:35:36.926Z,1012.32
2019-06-10T03:36:35.916Z,1012.39
2019-06-10T03:37:35.906Z,1012.47
2019-06-10T03:38:37.071Z,1012.45
2019-06-10T03:39:35.890Z,1012.44
2019-06-10T03:40:35.871Z,1012.44
2019-06-10T03:41:35.860Z,1012.48
2019-06-10T03:42:35.848Z,1012.42
2019-06-10T03:43:35.839Z,1012.43
2019-06-10T03:44:35.826Z,1012.34
2019-06-10T03:45:35.823Z,1012.30
2019-06-10T03:46:35.803Z,1012.28
2019-06-10T03:47:35.793Z,1012.33
2019-06-10T03:48:35.783Z,1012.39
2019-06-10T03:49:49.031Z,1012.41
2019-06-10T03:50:36.787Z,1012.42
2019-06-10T03:51:35.747Z,1012.46
2019-06-10T03:52:35.737Z,1012.49
2019-06-10T03:53:35.729Z,1012.53
2019-06-10T03:54:35.714Z,1012.54
2019-06-10T03:55:35.703Z,1012.43
2019-06-10T03:56:35.720Z,1012.42
2019-06-10T03:57:35.682Z,1012.48
2019-06-10T03:58:35.669Z,1012.46
2019-06-10T03:59:35.659Z,1012.50
2019-06-10T04:00:37.042Z,1012.57
2019-06-10T04:01:35.637Z,1012.62
2019-06-10T04:02:35.633Z,1012.74
2019-06-10T04:03:35.617Z,1012.79
2019-06-10T04:04:35.604Z,1012.74
2019-06-10T04:05:35.592Z,1012.68
2019-06-10T04:06:35.581Z,1012.52
2019-06-10T04:07:35.570Z,1012.36
2019-06-10T04:08:35.581Z,1012.34
2019-06-10T04:09:35.548Z,1012.25
2019-06-10T04:10:35.539Z,1012.22
2019-06-10T04:11:35.777Z,1012.24
2019-06-10T04:12:35.514Z,1012.21
2019-06-10T04:13:35.502Z,1012.22
2019-06-10T04:14:35.524Z,1012.25
2019-06-10T04:15:35.480Z,1012.13
2019-06-10T04:16:35.471Z,1012.16
2019-06-10T04:17:35.458Z,1012.11
2019-06-10T04:18:35.448Z,1012.08
2019-06-10T04:19:35.442Z,1012.12
2019-06-10T04:20:35.432Z,1012.15
2019-06-10T04:21:35.417Z,1012.19
2019-06-10T04:22:35.403Z,1012.23
2019-06-10T04:23:35.391Z,1012.18
2019-06-10T04:24:35.379Z,1012.19
2019-06-10T04:25:35.384Z,1012.23
2019-06-10T04:26:35.385Z,1012.25
2019-06-10T04:27:35.347Z,1012.29
2019-06-10T04:28:35.336Z,1012.30
2019-06-10T04:29:35.327Z,1012.28
2019-06-10T04:30:35.316Z,1012.32
2019-06-10T04:31:35.301Z,1012.30
2019-06-10T04:32:35.310Z,1012.23
2019-06-10T04:33:35.280Z,1012.20
2019-06-10T04:34:35.269Z,1012.24
2019-06-10T04:35:35.259Z,1012.21
2019-06-10T04:36:35.245Z,1012.20
2019-06-10T04:37:35.235Z,1012.19
2019-06-10T04:38:35.230Z,1012.16
2019-06-10T04:39:35.212Z,1012.10
2019-06-10T04:40:35.201Z,1012.09
2019-06-10T04:41:35.192Z,1012.09
2019-06-10T04:42:35.178Z,1012.08
2019-06-10T04:43:35.169Z,1012.08
2019-06-10T04:44:35.165Z,1012.12
2019-06-10T04:45:35.145Z,1012.12
2019-06-10T04:46:35.135Z,1012.08
2019-06-10T04:47:35.124Z,1012.03
2019-06-10T04:48:35.112Z,1012.02
2019-06-10T04:49:35.103Z,1011.93
2019-06-10T04:50:42.650Z,1011.91
2019-06-10T04:51:36.077Z,1011.87
2019-06-10T04:52:35.067Z,1011.85
2019-06-10T04:53:35.057Z,1011.80
2019-06-10T04:54:35.048Z,1011.76
2019-06-10T04:55:35.036Z,1011.66
2019-06-10T04:56:35.053Z,1011.60
2019-06-10T04:57:35.011Z,1011.59
2019-06-10T04:58:35.001Z,1011.58
2019-06-10T04:59:34.990Z,1011.56
2019-06-10T05:00:34.980Z,1011.57
2019-06-10T05:01:34.980Z,1011.60
2019-06-10T05:02:34.963Z,1011.60
2019-06-10T05:03:34.945Z,1011.58
2019-06-10T05:04:34.933Z,1011.63
2019-06-10T05:05:34.931Z,1011.62
2019-06-10T05:06:34.912Z,1011.65
2019-06-10T05:07:37.046Z,1011.61
2019-06-10T05:08:34.909Z,1011.66
2019-06-10T05:09:34.879Z,1011.65
2019-06-10T05:10:34.867Z,1011.62
2019-06-10T05:11:34.864Z,1011.63
2019-06-10T05:12:34.846Z,1011.60
2019-06-10T05:13:34.833Z,1011.63
2019-06-10T05:14:34.857Z,1011.65
2019-06-10T05:15:35.155Z,1011.66
2019-06-10T05:16:35.857Z,1011.65
2019-06-10T05:17:34.790Z,1011.68
2019-06-10T05:18:34.779Z,1011.70
2019-06-10T05:19:34.767Z,1011.72
2019-06-10T05:20:51.118Z,1011.71
2019-06-10T05:21:35.744Z,1011.68
2019-06-10T05:22:34.734Z,1011.67
2019-06-10T05:23:34.722Z,1011.64
2019-06-10T05:24:34.711Z,1011.66
2019-06-10T05:25:34.699Z,1011.61
2019-06-10T05:26:34.717Z,1011.59
2019-06-10T05:27:34.678Z,1011.63
2019-06-10T05:28:34.667Z,1011.67
2019-06-10T05:29:34.655Z,1011.69
2019-06-10T05:30:34.645Z,1011.71
2019-06-10T05:31:35.252Z,1011.68
2019-06-10T05:32:34.630Z,1011.71
2019-06-10T05:33:34.612Z,1011.69
2019-06-10T05:34:34.933Z,1011.71
2019-06-10T05:35:34.589Z,1011.73
2019-06-10T05:36:34.937Z,1011.72
2019-06-10T05:37:34.566Z,1011.66
2019-06-10T05:38:35.271Z,1011.65
2019-06-10T05:39:35.283Z,1011.68
2019-06-10T05:40:34.538Z,1011.74
2019-06-10T05:41:35.248Z,1011.77
2019-06-10T05:42:36.156Z,1011.78
2019-06-10T05:43:34.712Z,1011.82
2019-06-10T05:44:34.741Z,1011.80
2019-06-10T05:45:35.279Z,1011.77
2019-06-10T05:46:35.098Z,1011.73
2019-06-10T05:47:36.105Z,1011.78
2019-06-10T05:48:35.131Z,1011.77
2019-06-10T05:49:36.180Z,1011.76
2019-06-10T05:50:35.027Z,1011.77
2019-06-10T05:51:35.378Z,1011.73
2019-06-10T05:52:35.165Z,1011.75
2019-06-10T05:53:35.531Z,1011.76
2019-06-10T05:54:35.522Z,1011.81
2019-06-10T05:55:35.317Z,1011.76
2019-06-10T05:56:35.685Z,1011.74
2019-06-10T05:57:35.584Z,1011.76
2019-06-10T05:58:35.950Z,1011.69
2019-06-10T05:59:35.923Z,1011.70
2019-06-10T06:00:35.493Z,1011.66
2019-06-10T06:01:37.947Z,1011.72
2019-06-10T06:02:35.558Z,1011.66
2019-06-10T06:03:36.929Z,1011.71
2019-06-10T06:04:35.907Z,1011.61
2019-06-10T06:05:36.119Z,1011.64
2019-06-10T06:06:35.452Z,1011.56
2019-06-10T06:07:35.642Z,1011.54
2019-06-10T06:08:35.466Z,1011.56
2019-06-10T06:09:35.325Z,1011.50
2019-06-10T06:10:36.020Z,1011.54
2019-06-10T06:11:35.362Z,1011.57
2019-06-10T06:12:35.742Z,1011.56
2019-06-10T06:13:36.026Z,1011.54
2019-06-10T06:14:35.937Z,1011.59
2019-06-10T06:15:35.784Z,1011.56
2019-06-10T06:16:36.091Z,1011.53
2019-06-10T06:17:35.366Z,1011.55
2019-06-10T06:18:36.329Z,1011.55
2019-06-10T06:19:37.313Z,1011.54
2019-06-10T06:20:35.936Z,1011.51
2019-06-10T06:21:41.637Z,1011.48
2019-06-10T06:22:35.673Z,1011.50
2019-06-10T06:23:36.668Z,1011.54
2019-06-10T06:24:35.591Z,1011.51
2019-06-10T06:25:40.979Z,1011.51
2019-06-10T06:26:38.082Z,1011.53
2019-06-10T06:27:35.469Z,1011.50
2019-06-10T06:28:36.080Z,1011.48
2019-06-10T06:29:36.614Z,1011.49
2019-06-10T06:30:36.052Z,1011.47
2019-06-10T06:31:36.072Z,1011.44
2019-06-10T06:32:36.389Z,1011.50
2019-06-10T06:33:36.808Z,1011.46
2019-06-10T06:34:35.915Z,1011.44
2019-06-10T06:35:40.311Z,1011.44
2019-06-10T06:36:36.653Z,1011.43
2019-06-10T06:37:36.393Z,1011.41
2019-06-10T06:38:35.696Z,1011.44
2019-06-10T06:39:35.461Z,1011.37
2019-06-10T06:40:36.842Z,1011.39
2019-06-10T06:41:34.553Z,1011.37
2019-06-10T06:42:35.110Z,1011.40
2019-06-10T06:43:38.943Z,1011.40
2019-06-10T06:44:37.663Z,1011.35
2019-06-10T06:45:35.873Z,1011.41
2019-06-10T06:46:36.572Z,1011.39
2019-06-10T06:47:35.617Z,1011.41
2019-06-10T06:48:38.431Z,1011.40
2019-06-10T06:49:35.825Z,1011.39
2019-06-10T06:50:35.597Z,1011.34
2019-06-10T06:51:47.678Z,1011.38
2019-06-10T06:53:07.742Z,1011.31
2019-06-10T06:53:44.074Z,1011.28
2019-06-10T06:54:36.141Z,1011.23
2019-06-10T06:55:35.256Z,1011.23
2019-06-10T06:56:36.133Z,1011.22
2019-06-10T06:57:34.265Z,1011.20
2019-06-10T06:58:35.342Z,1011.18
2019-06-10T06:59:34.338Z,1011.16
2019-06-10T07:00:49.224Z,1011.18
2019-06-10T07:01:36.480Z,1011.13
2019-06-10T07:02:34.569Z,1011.05
2019-06-10T07:03:35.359Z,1011.04
2019-06-10T07:04:34.277Z,1010.98
2019-06-10T07:05:35.549Z,1010.96
2019-06-10T07:06:34.531Z,1010.97
2019-06-10T07:07:35.414Z,1010.95
2019-06-10T07:08:36.150Z,1010.97
2019-06-10T07:09:35.611Z,1010.98
2019-06-10T07:10:35.463Z,1010.99
2019-06-10T07:11:36.715Z,1011.00
2019-06-10T07:12:36.028Z,1010.97
2019-06-10T07:13:35.907Z,1010.99
2019-06-10T07:14:36.819Z,1010.95
2019-06-10T07:15:35.455Z,1010.97
2019-06-10T07:16:34.535Z,1010.93
2019-06-10T07:17:34.584Z,1010.91
2019-06-10T07:18:38.883Z,1010.90
2019-06-10T07:19:36.605Z,1010.88
2019-06-10T07:20:36.359Z,1010.86
2019-06-10T07:21:40.455Z,1010.88
2019-06-10T07:22:36.874Z,1010.86
2019-06-10T07:23:36.031Z,1010.88
2019-06-10T07:24:35.977Z,1010.81
2019-06-10T07:25:35.831Z,1010.82
2019-06-10T07:26:36.977Z,1010.84
2019-06-10T07:27:37.038Z,1010.82
2019-06-10T07:28:35.770Z,1010.86
2019-06-10T07:29:35.830Z,1010.90
2019-06-10T07:30:35.818Z,1010.94
2019-06-10T07:31:36.392Z,1010.92
2019-06-10T07:32:35.859Z,1010.92
2019-06-10T07:33:37.388Z,1010.98
2019-06-10T07:34:35.488Z,1011.00
2019-06-10T07:35:34.573Z,1010.96
2019-06-10T07:36:35.305Z,1010.96
2019-06-10T07:37:34.941Z,1010.94
2019-06-10T07:38:37.170Z,1010.95
2019-06-10T07:39:36.422Z,1010.90
2019-06-10T07:40:34.755Z,1010.87
2019-06-10T07:41:34.418Z,1010.84
2019-06-10T07:42:34.526Z,1010.89
2019-06-10T07:43:37.514Z,1010.88
2019-06-10T07:44:34.895Z,1010.92
2019-06-10T07:45:33.857Z,1010.92
2019-06-10T07:46:34.631Z,1010.96
2019-06-10T07:47:34.178Z,1010.96
2019-06-10T07:48:34.889Z,1010.98
2019-06-10T07:49:33.864Z,1011.03
2019-06-10T07:50:34.661Z,1011.02
2019-06-10T07:51:34.592Z,1011.02
2019-06-10T07:52:34.349Z,1011.00
2019-06-10T07:53:34.920Z,1010.96
2019-06-10T07:54:34.459Z,1010.92
2019-06-10T07:55:34.587Z,1010.91
2019-06-10T07:56:38.227Z,1010.93
2019-06-10T07:57:34.770Z,1010.92
2019-06-10T07:58:35.143Z,1010.92
2019-06-10T07:59:33.851Z,1010.91
2019-06-10T08:00:34.697Z,1010.93
2019-06-10T08:01:34.737Z,1010.93
2019-06-10T08:02:34.051Z,1010.93
2019-06-10T08:03:34.909Z,1010.93
2019-06-10T08:04:33.646Z,1010.93
2019-06-10T08:05:34.195Z,1010.93
2019-06-10T08:06:34.530Z,1010.95
2019-06-10T08:07:33.498Z,1010.94
2019-06-10T08:08:33.194Z,1010.93
2019-06-10T08:09:35.678Z,1010.96
2019-06-10T08:10:32.894Z,1010.93
2019-06-10T08:11:33.313Z,1010.94
2019-06-10T08:12:32.839Z,1010.92
2019-06-10T08:13:32.837Z,1010.91
2019-06-10T08:14:33.051Z,1010.89
2019-06-10T08:15:32.804Z,1010.86
2019-06-10T08:16:32.866Z,1010.91
2019-06-10T08:17:32.913Z,1010.87
2019-06-10T08:18:44.658Z,1010.90
2019-06-10T08:19:38.256Z,1010.92
2019-06-10T08:20:34.872Z,1010.91
2019-06-10T08:21:32.738Z,1010.89
2019-06-10T08:22:37.271Z,1010.92
2019-06-10T08:23:33.715Z,1010.90
2019-06-10T08:24:33.021Z,1010.86
2019-06-10T08:25:32.931Z,1010.83
2019-06-10T08:26:32.682Z,1010.83
2019-06-10T08:27:33.611Z,1010.86
2019-06-10T08:28:33.272Z,1010.89
2019-06-10T08:29:33.124Z,1010.91
2019-06-10T08:30:33.015Z,1010.89
2019-06-10T08:31:33.398Z,1010.92
2019-06-10T08:32:33.486Z,1010.92
2019-06-10T08:33:33.249Z,1010.88
2019-06-10T08:34:33.060Z,1010.91
2019-06-10T08:35:39.364Z,1010.93
2019-06-10T08:36:33.598Z,1010.90
2019-06-10T08:37:33.154Z,1010.87
2019-06-10T08:38:33.113Z,1010.88
2019-06-10T08:39:33.454Z,1010.86
2019-06-10T08:40:32.709Z,1010.85
2019-06-10T08:41:32.517Z,1010.89
2019-06-10T08:42:32.555Z,1010.87
2019-06-10T08:43:33.170Z,1010.83
2019-06-10T08:44:32.871Z,1010.85
2019-06-10T08:45:33.390Z,1010.81
2019-06-10T08:46:32.987Z,1010.80
2019-06-10T08:47:32.746Z,1010.81
2019-06-10T08:48:32.929Z,1010.76
2019-06-10T08:49:32.828Z,1010.75
2019-06-10T08:50:33.693Z,1010.79
2019-06-10T08:51:32.633Z,1010.77
2019-06-10T08:52:48.879Z,1010.73
2019-06-10T08:53:33.387Z,1010.70
2019-06-10T08:54:32.555Z,1010.69
2019-06-10T08:55:33.474Z,1010.66
2019-06-10T08:56:32.884Z,1010.66
2019-06-10T08:57:33.505Z,1010.71
2019-06-10T08:58:33.103Z,1010.73
2019-06-10T08:59:32.681Z,1010.67
2019-06-10T09:00:33.270Z,1010.64
2019-06-10T09:01:33.491Z,1010.69
2019-06-10T09:02:33.445Z,1010.69
2019-06-10T09:03:32.573Z,1010.70
2019-06-10T09:04:33.125Z,1010.66
2019-06-10T09:05:32.497Z,1010.66
2019-06-10T09:06:32.932Z,1010.70
2019-06-10T09:07:32.441Z,1010.69
2019-06-10T09:08:32.687Z,1010.66
2019-06-10T09:09:33.474Z,1010.72
2019-06-10T09:10:33.924Z,1010.74
2019-06-10T09:11:32.850Z,1010.79
2019-06-10T09:12:36.387Z,1010.76
2019-06-10T09:13:33.666Z,1010.71
2019-06-10T09:14:32.725Z,1010.74
2019-06-10T09:15:32.549Z,1010.75
2019-06-10T09:16:32.959Z,1010.75
2019-06-10T09:17:33.794Z,1010.75
2019-06-10T09:18:33.716Z,1010.77
2019-06-10T09:19:33.229Z,1010.79
2019-06-10T09:20:33.211Z,1010.82
2019-06-10T09:21:33.004Z,1010.78
2019-06-10T09:22:32.697Z,1010.77
2019-06-10T09:23:33.161Z,1010.80
2019-06-10T09:24:32.764Z,1010.80
2019-06-10T09:25:33.324Z,1010.74
2019-06-10T09:26:33.766Z,1010.70
2019-06-10T09:27:32.833Z,1010.61
2019-06-10T09:28:32.896Z,1010.62
2019-06-10T09:29:32.885Z,1010.60
2019-06-10T09:30:33.387Z,1010.58
2019-06-10T09:31:33.130Z,1010.57
2019-06-10T09:32:32.586Z,1010.55
2019-06-10T09:33:33.126Z,1010.54
2019-06-10T09:34:33.046Z,1010.53
2019-06-10T09:35:32.379Z,1010.52
2019-06-10T09:36:32.505Z,1010.48
2019-06-10T09:37:32.526Z,1010.43
2019-06-10T09:38:33.471Z,1010.43
2019-06-10T09:39:32.834Z,1010.41
2019-06-10T09:40:33.341Z,1010.39
2019-06-10T09:41:40.217Z,1010.39
2019-06-10T09:42:33.311Z,1010.32
2019-06-10T09:43:33.370Z,1010.29
2019-06-10T09:44:33.356Z,1010.19
2019-06-10T09:45:33.281Z,1010.23
2019-06-10T09:46:33.106Z,1010.23
2019-06-10T09:47:34.700Z,1010.27
2019-06-10T09:48:33.584Z,1010.33
2019-06-10T09:49:33.071Z,1010.34
2019-06-10T09:50:33.404Z,1010.32
2019-06-10T09:51:32.391Z,1010.34
2019-06-10T09:52:32.828Z,1010.32
2019-06-10T09:53:41.446Z,1010.27
2019-06-10T09:54:33.533Z,1010.29
2019-06-10T09:55:32.879Z,1010.31
2019-06-10T09:56:33.142Z,1010.32
2019-06-10T09:57:32.168Z,1010.31
2019-06-10T09:58:32.927Z,1010.35
2019-06-10T09:59:32.233Z,1010.41
2019-06-10T10:00:33.146Z,1010.37
2019-06-10T10:01:32.649Z,1010.41
2019-06-10T10:02:33.243Z,1010.40
2019-06-10T10:03:32.974Z,1010.42
2019-06-10T10:04:32.712Z,1010.41
2019-06-10T10:05:33.775Z,1010.43
2019-06-10T10:06:32.758Z,1010.41
2019-06-10T10:07:32.466Z,1010.41
2019-06-10T10:08:32.759Z,1010.38
2019-06-10T10:09:34.446Z,1010.35
2019-06-10T10:10:32.792Z,1010.40
2019-06-10T10:11:32.079Z,1010.39
2019-06-10T10:12:32.713Z,1010.40
2019-06-10T10:13:34.952Z,1010.41
2019-06-10T10:14:33.493Z,1010.39
2019-06-10T10:15:34.420Z,1010.40
2019-06-10T10:16:33.896Z,1010.40
2019-06-10T10:17:33.371Z,1010.39
2019-06-10T10:18:33.480Z,1010.39
2019-06-10T10:19:31.426Z,1010.44
2019-06-10T10:20:33.992Z,1010.39
2019-06-10T10:21:31.404Z,1010.40
2019-06-10T10:22:33.572Z,1010.41
2019-06-10T10:23:49.096Z,1010.40
2019-06-10T10:24:34.089Z,1010.43
2019-06-10T10:25:33.255Z,1010.42
2019-06-10T10:26:31.389Z,1010.39
2019-06-10T10:27:32.328Z,1010.40
2019-06-10T10:28:33.413Z,1010.37
2019-06-10T10:29:32.863Z,1010.41
2019-06-10T10:30:33.184Z,1010.40
2019-06-10T10:31:32.464Z,1010.39
2019-06-10T10:32:33.408Z,1010.32
2019-06-10T10:33:33.378Z,1010.38
2019-06-10T10:34:33.274Z,1010.36
2019-06-10T10:35:32.657Z,1010.41
2019-06-10T10:36:33.576Z,1010.45
2019-06-10T10:37:32.277Z,1010.49
2019-06-10T10:38:33.931Z,1010.46
2019-06-10T10:39:32.710Z,1010.46
2019-06-10T10:40:32.546Z,1010.39
2019-06-10T10:41:32.326Z,1010.42
2019-06-10T10:42:44.621Z,1010.41
2019-06-10T10:43:37.021Z,1010.32
2019-06-10T10:44:32.147Z,1010.34
2019-06-10T10:45:31.213Z,1010.31
2019-06-10T10:46:32.605Z,1010.33
2019-06-10T10:47:33.580Z,1010.34
2019-06-10T10:48:33.291Z,1010.31
2019-06-10T10:49:32.530Z,1010.32
2019-06-10T10:50:33.952Z,1010.32
2019-06-10T10:51:32.657Z,1010.32
2019-06-10T10:52:33.035Z,1010.33
2019-06-10T10:53:32.733Z,1010.31
2019-06-10T10:54:36.009Z,1010.25
2019-06-10T10:55:32.926Z,1010.24
2019-06-10T10:56:33.388Z,1010.22
2019-06-10T10:57:33.003Z,1010.23
2019-06-10T10:58:33.011Z,1010.19
2019-06-10T10:59:33.223Z,1010.20
2019-06-10T11:00:37.172Z,1010.20
2019-06-10T11:01:33.304Z,1010.17
2019-06-10T11:02:32.200Z,1010.19
2019-06-10T11:03:33.357Z,1010.18
2019-06-10T11:04:32.847Z,1010.20
2019-06-10T11:05:33.268Z,1010.24
2019-06-10T11:06:32.308Z,1010.21
2019-06-10T11:07:33.313Z,1010.23
2019-06-10T11:08:33.191Z,1010.22
2019-06-10T11:09:33.087Z,1010.23
2019-06-10T11:10:33.030Z,1010.24
2019-06-10T11:11:33.142Z,1010.23
2019-06-10T11:12:33.095Z,1010.22
2019-06-10T11:13:33.352Z,1010.21
2019-06-10T11:14:33.300Z,1010.20
2019-06-10T11:15:33.763Z,1010.23
2019-06-10T11:16:33.058Z,1010.20
2019-06-10T11:17:33.453Z,1010.19
2019-06-10T11:18:30.771Z,1010.18
2019-06-10T11:19:32.845Z,1010.21
2019-06-10T11:20:31.536Z,1010.18
2019-06-10T11:21:32.906Z,1010.19
2019-06-10T11:22:32.836Z,1010.16
2019-06-10T11:23:34.229Z,1010.20
2019-06-10T11:24:37.838Z,1010.17
2019-06-10T11:25:33.237Z,1010.13
2019-06-10T11:26:32.850Z,1010.12
2019-06-10T11:27:33.012Z,1010.10
2019-06-10T11:28:32.140Z,1010.13
2019-06-10T11:29:32.874Z,1010.14
2019-06-10T11:30:32.390Z,1010.13
2019-06-10T11:31:32.724Z,1010.11
2019-06-10T11:32:32.776Z,1010.08
2019-06-10T11:33:32.666Z,1010.11
2019-06-10T11:34:33.043Z,1010.11
2019-06-10T11:35:30.582Z,1010.06
2019-06-10T11:36:30.572Z,1010.13
2019-06-10T11:37:30.561Z,1010.11
2019-06-10T11:38:32.821Z,1010.10
2019-06-10T11:39:33.031Z,1010.11
2019-06-10T11:40:31.606Z,1010.13
2019-06-10T11:41:32.485Z,1010.13
2019-06-10T11:42:33.274Z,1010.14
2019-06-10T11:43:32.893Z,1010.11
2019-06-10T11:44:33.182Z,1010.13
2019-06-10T11:45:32.705Z,1010.16
2019-06-10T11:46:32.598Z,1010.11
2019-06-10T11:47:30.553Z,1010.12
2019-06-10T11:48:32.703Z,1010.09
2019-06-10T11:49:30.426Z,1010.10
2019-06-10T11:50:30.416Z,1010.10
2019-06-10T11:51:30.405Z,1010.10
2019-06-10T11:52:33.390Z,1010.12
2019-06-10T11:53:30.382Z,1010.10
2019-06-10T11:54:34.057Z,1010.07
2019-06-10T11:55:33.326Z,1010.06
2019-06-10T11:56:33.473Z,1010.06
2019-06-10T11:57:32.958Z,1010.04
2019-06-10T11:58:33.067Z,1010.02
2019-06-10T11:59:32.605Z,1009.99
2019-06-10T12:00:32.983Z,1009.97
2019-06-10T12:01:30.959Z,1009.96
2019-06-10T12:02:30.283Z,1009.93
2019-06-10T12:03:30.271Z,1009.93
2019-06-10T12:04:30.294Z,1009.90
2019-06-10T12:05:32.618Z,1009.84